sensor_id;sensor_type;location;lat;lon;timestamp;pressure;altitude;pressure_sealevel;temperature;humidity
31299;BME280;17927;52.350;13.402;2023-05-12T00:00:37;101336.13;;;20.95;34.21
31299;BME280;17927;52.350;13.402;2023-05-12T00:03:03;101331.06;;;20.92;34.16
31299;BME280;17927;52.350;13.402;2023-05-12T00:05:28;101332.28;;;20.90;33.91
31299;BME280;17927;52.350;13.402;2023-05-12T00:07:54;101331.63;;;20.88;34.20
31299;BME280;17927;52.350;13.402;2023-05-12T00:10:19;101325.53;;;20.86;34.19
31299;BME280;17927;52.350;13.402;2023-05-12T00:12:45;101322.28;;;20.82;33.98
31299;BME280;17927;52.350;13.402;2023-05-12T00:15:11;101336.22;;;20.80;34.16
31299;BME280;17927;52.350;13.402;2023-05-12T00:17:36;101334.75;;;20.78;34.25
31299;BME280;17927;52.350;13.402;2023-05-12T00:20:02;101334.09;;;20.76;34.09
31299;BME280;17927;52.350;13.402;2023-05-12T00:22:27;101333.41;;;20.74;34.33
31299;BME280;17927;52.350;13.402;2023-05-12T00:24:53;101330.19;;;20.70;34.23
31299;BME280;17927;52.350;13.402;2023-05-12T00:27:18;101330.59;;;20.67;34.35
31299;BME280;17927;52.350;13.402;2023-05-12T00:29:43;101332.03;;;20.63;34.37
31299;BME280;17927;52.350;13.402;2023-05-12T00:32:08;101323.34;;;20.59;34.22
31299;BME280;17927;52.350;13.402;2023-05-12T00:34:34;101325.59;;;20.56;34.20
31299;BME280;17927;52.350;13.402;2023-05-12T00:36:59;101322.41;;;20.52;34.21
31299;BME280;17927;52.350;13.402;2023-05-12T00:39:24;101327.44;;;20.48;34.46
31299;BME280;17927;52.350;13.402;2023-05-12T00:41:55;101329.53;;;20.46;34.29
31299;BME280;17927;52.350;13.402;2023-05-12T00:44:20;101329.25;;;20.41;34.49
31299;BME280;17927;52.350;13.402;2023-05-12T00:46:46;101332.00;;;20.41;34.47
31299;BME280;17927;52.350;13.402;2023-05-12T00:49:11;101335.16;;;20.38;34.19
31299;BME280;17927;52.350;13.402;2023-05-12T00:51:37;101334.50;;;20.36;34.48
31299;BME280;17927;52.350;13.402;2023-05-12T00:54:02;101339.31;;;20.34;34.37
31299;BME280;17927;52.350;13.402;2023-05-12T00:56:27;101333.56;;;20.29;34.36
31299;BME280;17927;52.350;13.402;2023-05-12T00:58:53;101338.38;;;20.27;34.52
31299;BME280;17927;52.350;13.402;2023-05-12T01:01:19;101336.22;;;20.22;34.90
31299;BME280;17927;52.350;13.402;2023-05-12T01:03:44;101333.84;;;20.19;34.49
31299;BME280;17927;52.350;13.402;2023-05-12T01:06:28;101334.06;;;20.17;34.82
31299;BME280;17927;52.350;13.402;2023-05-12T01:08:57;101332.94;;;20.12;34.63
31299;BME280;17927;52.350;13.402;2023-05-12T01:11:23;101340.31;;;20.11;34.74
31299;BME280;17927;52.350;13.402;2023-05-12T01:13:48;101339.84;;;20.07;34.60
31299;BME280;17927;52.350;13.402;2023-05-12T01:16:14;101340.06;;;20.06;34.97
31299;BME280;17927;52.350;13.402;2023-05-12T01:18:42;101335.78;;;20.03;34.75
31299;BME280;17927;52.350;13.402;2023-05-12T01:21:09;101345.25;;;20.01;35.14
31299;BME280;17927;52.350;13.402;2023-05-12T01:23:38;101350.94;;;19.99;35.08
31299;BME280;17927;52.350;13.402;2023-05-12T01:26:07;101348.38;;;19.98;35.02
31299;BME280;17927;52.350;13.402;2023-05-12T01:28:34;101345.84;;;19.96;34.79
31299;BME280;17927;52.350;13.402;2023-05-12T01:31:00;101347.91;;;19.94;34.84
31299;BME280;17927;52.350;13.402;2023-05-12T01:33:27;101351.91;;;19.91;35.18
31299;BME280;17927;52.350;13.402;2023-05-12T01:35:53;101344.88;;;19.89;35.05
31299;BME280;17927;52.350;13.402;2023-05-12T01:38:18;101345.22;;;19.86;35.17
31299;BME280;17927;52.350;13.402;2023-05-12T01:40:43;101352.59;;;19.85;35.19
31299;BME280;17927;52.350;13.402;2023-05-12T01:43:08;101355.56;;;19.84;35.14
31299;BME280;17927;52.350;13.402;2023-05-12T01:45:33;101351.09;;;19.83;35.28
31299;BME280;17927;52.350;13.402;2023-05-12T01:47:59;101352.16;;;19.82;35.24
31299;BME280;17927;52.350;13.402;2023-05-12T01:50:24;101356.75;;;19.81;35.19
31299;BME280;17927;52.350;13.402;2023-05-12T01:52:49;101358.84;;;19.79;35.33
31299;BME280;17927;52.350;13.402;2023-05-12T01:55:15;101356.09;;;19.79;35.38
31299;BME280;17927;52.350;13.402;2023-05-12T01:57:41;101358.84;;;19.79;35.11
31299;BME280;17927;52.350;13.402;2023-05-12T02:00:07;101354.41;;;19.78;35.31
31299;BME280;17927;52.350;13.402;2023-05-12T02:02:33;101362.63;;;19.78;35.15
31299;BME280;17927;52.350;13.402;2023-05-12T02:04:58;101353.94;;;19.74;35.37
31299;BME280;17927;52.350;13.402;2023-05-12T02:07:24;101358.09;;;19.70;35.21
31299;BME280;17927;52.350;13.402;2023-05-12T02:09:49;101365.47;;;19.70;35.45
31299;BME280;17927;52.350;13.402;2023-05-12T02:12:14;101361.91;;;19.69;35.33
31299;BME280;17927;52.350;13.402;2023-05-12T02:14:40;101355.91;;;19.66;35.17
31299;BME280;17927;52.350;13.402;2023-05-12T02:17:05;101369.81;;;19.64;35.52
31299;BME280;17927;52.350;13.402;2023-05-12T02:19:30;101367.25;;;19.62;35.41
31299;BME280;17927;52.350;13.402;2023-05-12T02:21:55;101371.88;;;19.62;35.15
31299;BME280;17927;52.350;13.402;2023-05-12T02:24:21;101360.47;;;19.58;35.37
31299;BME280;17927;52.350;13.402;2023-05-12T02:26:46;101379.81;;;19.57;35.47
31299;BME280;17927;52.350;13.402;2023-05-12T02:29:11;101377.47;;;19.54;35.64
31299;BME280;17927;52.350;13.402;2023-05-12T02:31:37;101375.09;;;19.51;35.87
31299;BME280;17927;52.350;13.402;2023-05-12T02:34:02;101379.91;;;19.48;35.63
31299;BME280;17927;52.350;13.402;2023-05-12T02:36:28;101380.09;;;19.47;35.94
31299;BME280;17927;52.350;13.402;2023-05-12T02:38:53;101381.16;;;19.46;35.82
31299;BME280;17927;52.350;13.402;2023-05-12T02:41:18;101385.09;;;19.43;35.89
31299;BME280;17927;52.350;13.402;2023-05-12T02:43:44;101382.56;;;19.42;35.99
31299;BME280;17927;52.350;13.402;2023-05-12T02:46:09;101386.50;;;19.39;35.68
31299;BME280;17927;52.350;13.402;2023-05-12T02:48:34;101386.69;;;19.38;35.87
31299;BME280;17927;52.350;13.402;2023-05-12T02:51:00;101381.41;;;19.36;35.95
31299;BME280;17927;52.350;13.402;2023-05-12T02:53:25;101379.03;;;19.33;36.06
31299;BME280;17927;52.350;13.402;2023-05-12T02:55:52;101369.97;;;19.32;36.24
31299;BME280;17927;52.350;13.402;2023-05-12T02:58:17;101371.00;;;19.31;35.86
31299;BME280;17927;52.350;13.402;2023-05-12T03:00:42;101378.75;;;19.28;36.15
31299;BME280;17927;52.350;13.402;2023-05-12T03:03:08;101377.22;;;19.25;36.06
31299;BME280;17927;52.350;13.402;2023-05-12T03:05:33;101382.03;;;19.23;35.72
31299;BME280;17927;52.350;13.402;2023-05-12T03:07:58;101375.41;;;19.17;36.00
31299;BME280;17927;52.350;13.402;2023-05-12T03:10:24;101375.97;;;19.13;35.82
31299;BME280;17927;52.350;13.402;2023-05-12T03:12:49;101380.13;;;19.09;36.16
31299;BME280;17927;52.350;13.402;2023-05-12T03:15:15;101382.75;;;19.02;35.94
31299;BME280;17927;52.350;13.402;2023-05-12T03:17:40;101383.47;;;18.96;36.13
31299;BME280;17927;52.350;13.402;2023-05-12T03:20:06;101379.38;;;18.92;36.02
31299;BME280;17927;52.350;13.402;2023-05-12T03:22:31;101379.06;;;18.86;36.04
31299;BME280;17927;52.350;13.402;2023-05-12T03:24:56;101382.53;;;18.80;36.21
31299;BME280;17927;52.350;13.402;2023-05-12T03:27:22;101388.75;;;18.74;36.24
31299;BME280;17927;52.350;13.402;2023-05-12T03:29:47;101384.84;;;18.68;36.26
31299;BME280;17927;52.350;13.402;2023-05-12T03:32:12;101387.06;;;18.65;36.49
31299;BME280;17927;52.350;13.402;2023-05-12T03:34:37;101387.44;;;18.62;36.39
31299;BME280;17927;52.350;13.402;2023-05-12T03:37:03;101382.34;;;18.59;36.64
31299;BME280;17927;52.350;13.402;2023-05-12T03:39:28;101396.03;;;18.59;36.62
31299;BME280;17927;52.350;13.402;2023-05-12T03:41:53;101386.47;;;18.54;36.40
31299;BME280;17927;52.350;13.402;2023-05-12T03:44:19;101394.00;;;18.52;36.45
31299;BME280;17927;52.350;13.402;2023-05-12T03:46:44;101391.63;;;18.49;36.61
31299;BME280;17927;52.350;13.402;2023-05-12T03:49:09;101388.19;;;18.47;36.76
31299;BME280;17927;52.350;13.402;2023-05-12T03:51:34;101395.09;;;18.43;36.55
31299;BME280;17927;52.350;13.402;2023-05-12T03:54:00;101390.81;;;18.40;36.71
31299;BME280;17927;52.350;13.402;2023-05-12T03:56:25;101391.84;;;18.39;36.45
31299;BME280;17927;52.350;13.402;2023-05-12T03:58:52;101393.25;;;18.35;37.03
31299;BME280;17927;52.350;13.402;2023-05-12T04:01:17;101398.72;;;18.35;36.93
31299;BME280;17927;52.350;13.402;2023-05-12T04:03:42;101396.16;;;18.34;37.13
31299;BME280;17927;52.350;13.402;2023-05-12T04:06:08;101398.03;;;18.33;37.01
31299;BME280;17927;52.350;13.402;2023-05-12T04:08:33;101393.59;;;18.32;37.06
31299;BME280;17927;52.350;13.402;2023-05-12T04:10:59;101401.81;;;18.32;36.94
31299;BME280;17927;52.350;13.402;2023-05-12T04:13:26;101400.09;;;18.31;37.34
31299;BME280;17927;52.350;13.402;2023-05-12T04:15:54;101405.72;;;18.30;37.29
31299;BME280;17927;52.350;13.402;2023-05-12T04:18:24;101405.72;;;18.30;37.19
31299;BME280;17927;52.350;13.402;2023-05-12T04:20:49;101415.63;;;18.31;37.43
31299;BME280;17927;52.350;13.402;2023-05-12T04:23:15;101411.03;;;18.31;37.15
31299;BME280;17927;52.350;13.402;2023-05-12T04:25:41;101410.84;;;18.33;37.35
31299;BME280;17927;52.350;13.402;2023-05-12T04:28:07;101413.22;;;18.36;37.16
31299;BME280;17927;52.350;13.402;2023-05-12T04:30:32;101417.19;;;18.33;37.48
31299;BME280;17927;52.350;13.402;2023-05-12T04:32:58;101421.78;;;18.33;37.28
31299;BME280;17927;52.350;13.402;2023-05-12T04:35:23;101417.53;;;18.30;37.35
31299;BME280;17927;52.350;13.402;2023-05-12T04:37:48;101416.03;;;18.28;37.20
31299;BME280;17927;52.350;13.402;2023-05-12T04:40:13;101417.03;;;18.26;37.33
31299;BME280;17927;52.350;13.402;2023-05-12T04:42:39;101419.09;;;18.24;37.25
31299;BME280;17927;52.350;13.402;2023-05-12T04:45:05;101417.41;;;18.23;37.50
31299;BME280;17927;52.350;13.402;2023-05-12T04:47:31;101422.00;;;18.23;37.46
31299;BME280;17927;52.350;13.402;2023-05-12T04:49:56;101422.19;;;18.21;37.46
31299;BME280;17927;52.350;13.402;2023-05-12T04:52:21;101422.00;;;18.23;37.54
31299;BME280;17927;52.350;13.402;2023-05-12T04:54:47;101427.31;;;18.24;37.70
31299;BME280;17927;52.350;13.402;2023-05-12T04:57:12;101428.00;;;18.26;37.80
31299;BME280;17927;52.350;13.402;2023-05-12T04:59:37;101434.13;;;18.29;37.80
31299;BME280;17927;52.350;13.402;2023-05-12T05:02:03;101435.47;;;18.33;37.96
31299;BME280;17927;52.350;13.402;2023-05-12T05:04:28;101439.06;;;18.33;37.96
31299;BME280;17927;52.350;13.402;2023-05-12T05:06:53;101435.78;;;18.38;37.73
31299;BME280;17927;52.350;13.402;2023-05-12T05:09:19;101439.50;;;18.45;37.75
31299;BME280;17927;52.350;13.402;2023-05-12T05:11:45;101441.38;;;18.53;37.95
31299;BME280;17927;52.350;13.402;2023-05-12T05:14:10;101438.38;;;18.63;38.11
31299;BME280;17927;52.350;13.402;2023-05-12T05:16:35;101444.50;;;18.73;37.92
31299;BME280;17927;52.350;13.402;2023-05-12T05:19:01;101447.19;;;18.81;38.11
31299;BME280;17927;52.350;13.402;2023-05-12T05:21:26;101449.00;;;18.89;37.92
31299;BME280;17927;52.350;13.402;2023-05-12T05:23:51;101452.22;;;19.01;37.88
31299;BME280;17927;52.350;13.402;2023-05-12T05:26:17;101441.84;;;19.11;38.03
31299;BME280;17927;52.350;13.402;2023-05-12T05:28:42;101439.91;;;19.20;37.83
31299;BME280;17927;52.350;13.402;2023-05-12T05:31:13;101437.13;;;19.28;37.83
31299;BME280;17927;52.350;13.402;2023-05-12T05:33:39;101448.66;;;19.39;37.72
31299;BME280;17927;52.350;13.402;2023-05-12T05:36:04;101452.00;;;19.49;37.75
31299;BME280;17927;52.350;13.402;2023-05-12T05:38:30;101453.78;;;19.57;37.19
31299;BME280;17927;52.350;13.402;2023-05-12T05:40:55;101449.47;;;19.62;37.09
31299;BME280;17927;52.350;13.402;2023-05-12T05:43:20;101459.69;;;19.69;37.25
31299;BME280;17927;52.350;13.402;2023-05-12T05:45:46;101458.75;;;19.76;36.85
31299;BME280;17927;52.350;13.402;2023-05-12T05:48:13;101457.81;;;19.84;36.67
31299;BME280;17927;52.350;13.402;2023-05-12T05:50:38;101467.69;;;19.93;37.07
31299;BME280;17927;52.350;13.402;2023-05-12T05:53:04;101467.59;;;20.02;37.09
31299;BME280;17927;52.350;13.402;2023-05-12T05:55:30;101471.09;;;20.11;36.69
31299;BME280;17927;52.350;13.402;2023-05-12T05:57:55;101474.97;;;20.16;36.59
31299;BME280;17927;52.350;13.402;2023-05-12T06:00:20;101472.53;;;20.21;36.58
31299;BME280;17927;52.350;13.402;2023-05-12T06:02:46;101475.00;;;20.31;36.50
31299;BME280;17927;52.350;13.402;2023-05-12T06:05:11;101475.91;;;20.38;36.42
31299;BME280;17927;52.350;13.402;2023-05-12T06:07:36;101473.91;;;20.47;36.49
31299;BME280;17927;52.350;13.402;2023-05-12T06:10:02;101476.53;;;20.56;36.08
31299;BME280;17927;52.350;13.402;2023-05-12T06:12:28;101480.22;;;20.63;36.07
31299;BME280;17927;52.350;13.402;2023-05-12T06:14:53;101483.34;;;20.75;36.49
31299;BME280;17927;52.350;13.402;2023-05-12T06:17:18;101467.88;;;20.89;36.59
31299;BME280;17927;52.350;13.402;2023-05-12T06:19:44;101477.47;;;21.14;36.65
31299;BME280;17927;52.350;13.402;2023-05-12T06:22:12;101477.44;;;21.36;36.46
31299;BME280;17927;52.350;13.402;2023-05-12T06:24:38;101479.25;;;21.51;36.31
31299;BME280;17927;52.350;13.402;2023-05-12T06:27:04;101486.50;;;21.58;36.14
31299;BME280;17927;52.350;13.402;2023-05-12T06:29:29;101488.31;;;21.66;35.40
31299;BME280;17927;52.350;13.402;2023-05-12T06:31:55;101493.84;;;21.73;35.55
31299;BME280;17927;52.350;13.402;2023-05-12T06:34:20;101490.53;;;21.78;35.05
31299;BME280;17927;52.350;13.402;2023-05-12T06:36:46;101492.66;;;21.82;35.47
31299;BME280;17927;52.350;13.402;2023-05-12T06:39:11;101497.34;;;21.88;34.85
31299;BME280;17927;52.350;13.402;2023-05-12T06:41:37;101485.56;;;21.95;35.06
31299;BME280;17927;52.350;13.402;2023-05-12T06:44:02;101484.75;;;22.01;35.13
31299;BME280;17927;52.350;13.402;2023-05-12T06:46:27;101482.22;;;22.06;34.83
31299;BME280;17927;52.350;13.402;2023-05-12T06:48:52;101485.88;;;22.13;34.52
31299;BME280;17927;52.350;13.402;2023-05-12T06:51:19;101491.84;;;22.17;34.41
31299;BME280;17927;52.350;13.402;2023-05-12T06:53:44;101487.41;;;22.23;34.34
31299;BME280;17927;52.350;13.402;2023-05-12T06:56:10;101490.41;;;22.28;34.48
31299;BME280;17927;52.350;13.402;2023-05-12T06:58:36;101483.91;;;22.35;34.74
31299;BME280;17927;52.350;13.402;2023-05-12T07:01:01;101488.63;;;22.42;34.18
31299;BME280;17927;52.350;13.402;2023-05-12T07:03:26;101482.09;;;22.49;34.45
31299;BME280;17927;52.350;13.402;2023-05-12T07:05:51;101495.66;;;22.58;34.07
31299;BME280;17927;52.350;13.402;2023-05-12T07:08:16;101495.91;;;22.63;34.27
31299;BME280;17927;52.350;13.402;2023-05-12T07:10:42;101493.38;;;22.68;34.10
31299;BME280;17927;52.350;13.402;2023-05-12T07:13:07;101495.31;;;22.74;34.10
31299;BME280;17927;52.350;13.402;2023-05-12T07:15:32;101491.09;;;22.78;33.97
31299;BME280;17927;52.350;13.402;2023-05-12T07:17:58;101497.47;;;22.86;33.36
31299;BME280;17927;52.350;13.402;2023-05-12T07:20:23;101490.50;;;22.90;33.78
31299;BME280;17927;52.350;13.402;2023-05-12T07:22:48;101490.72;;;22.95;33.77
31299;BME280;17927;52.350;13.402;2023-05-12T07:25:15;101491.78;;;23.01;33.35
31299;BME280;17927;52.350;13.402;2023-05-12T07:27:41;101488.41;;;23.05;33.45
31299;BME280;17927;52.350;13.402;2023-05-12T07:30:07;101479.31;;;23.11;33.23
31299;BME280;17927;52.350;13.402;2023-05-12T07:32:33;101482.91;;;23.19;33.39
31299;BME280;17927;52.350;13.402;2023-05-12T07:34:58;101490.41;;;23.25;33.40
31299;BME280;17927;52.350;13.402;2023-05-12T07:37:23;101484.88;;;23.32;33.53
31299;BME280;17927;52.350;13.402;2023-05-12T07:39:49;101485.53;;;23.40;33.76
31299;BME280;17927;52.350;13.402;2023-05-12T07:42:14;101487.44;;;23.47;33.06
31299;BME280;17927;52.350;13.402;2023-05-12T07:44:40;101489.34;;;23.53;32.88
31299;BME280;17927;52.350;13.402;2023-05-12T07:47:05;101490.41;;;23.59;32.92
31299;BME280;17927;52.350;13.402;2023-05-12T07:49:31;101484.25;;;23.63;32.53
31299;BME280;17927;52.350;13.402;2023-05-12T07:51:56;101482.78;;;23.67;32.08
31299;BME280;17927;52.350;13.402;2023-05-12T07:54:21;101498.03;;;23.70;32.10
31299;BME280;17927;52.350;13.402;2023-05-12T07:56:46;101499.31;;;23.74;32.54
31299;BME280;17927;52.350;13.402;2023-05-12T07:59:12;101491.25;;;23.79;31.96
31299;BME280;17927;52.350;13.402;2023-05-12T08:01:38;101484.03;;;23.85;31.77
31299;BME280;17927;52.350;13.402;2023-05-12T08:04:03;101496.13;;;23.91;31.85
31299;BME280;17927;52.350;13.402;2023-05-12T08:06:29;101485.28;;;23.96;31.48
31299;BME280;17927;52.350;13.402;2023-05-12T08:08:54;101488.06;;;24.02;31.91
31299;BME280;17927;52.350;13.402;2023-05-12T08:11:22;101491.22;;;24.13;31.73
31299;BME280;17927;52.350;13.402;2023-05-12T08:13:47;101488.66;;;24.18;31.50
31299;BME280;17927;52.350;13.402;2023-05-12T08:16:12;101479.72;;;24.23;30.57
31299;BME280;17927;52.350;13.402;2023-05-12T08:18:38;101489.28;;;24.27;31.53
31299;BME280;17927;52.350;13.402;2023-05-12T08:21:03;101491.16;;;24.33;30.80
31299;BME280;17927;52.350;13.402;2023-05-12T08:23:28;101491.13;;;24.40;31.03
31299;BME280;17927;52.350;13.402;2023-05-12T08:25:53;101490.50;;;24.44;30.65
31299;BME280;17927;52.350;13.402;2023-05-12T08:28:18;101483.25;;;24.50;30.58
31299;BME280;17927;52.350;13.402;2023-05-12T08:30:44;101476.22;;;24.54;30.57
31299;BME280;17927;52.350;13.402;2023-05-12T08:33:10;101474.28;;;24.61;30.34
31299;BME280;17927;52.350;13.402;2023-05-12T08:35:36;101477.00;;;24.68;30.00
31299;BME280;17927;52.350;13.402;2023-05-12T08:38:01;101482.53;;;24.75;29.65
31299;BME280;17927;52.350;13.402;2023-05-12T08:40:29;101484.84;;;24.78;29.29
31299;BME280;17927;52.350;13.402;2023-05-12T08:43:12;101488.88;;;24.82;28.99
31299;BME280;17927;52.350;13.402;2023-05-12T08:45:38;101484.44;;;24.81;28.58
31299;BME280;17927;52.350;13.402;2023-05-12T08:48:04;101482.06;;;24.85;28.64
31299;BME280;17927;52.350;13.402;2023-05-12T08:50:34;101490.75;;;24.88;28.79
31299;BME280;17927;52.350;13.402;2023-05-12T08:53:02;101469.28;;;24.90;27.89
31299;BME280;17927;52.350;13.402;2023-05-12T08:55:28;101482.84;;;24.92;28.13
31299;BME280;17927;52.350;13.402;2023-05-12T08:57:54;101484.34;;;24.95;27.81
31299;BME280;17927;52.350;13.402;2023-05-12T09:00:20;101493.03;;;24.98;27.25
31299;BME280;17927;52.350;13.402;2023-05-12T09:02:49;101479.84;;;25.00;27.56
31299;BME280;17927;52.350;13.402;2023-05-12T09:05:15;101487.69;;;25.03;27.18
31299;BME280;17927;52.350;13.402;2023-05-12T09:07:42;101480.03;;;25.05;26.84
31299;BME280;17927;52.350;13.402;2023-05-12T09:10:14;101487.84;;;25.08;26.14
31299;BME280;17927;52.350;13.402;2023-05-12T09:12:40;101483.19;;;25.09;26.42
31299;BME280;17927;52.350;13.402;2023-05-12T09:15:10;101464.47;;;25.11;26.11
31299;BME280;17927;52.350;13.402;2023-05-12T09:17:38;101480.63;;;25.14;26.01
31299;BME280;17927;52.350;13.402;2023-05-12T09:20:03;101476.75;;;25.15;25.58
31299;BME280;17927;52.350;13.402;2023-05-12T09:22:31;101472.28;;;25.21;25.67
31299;BME280;17927;52.350;13.402;2023-05-12T09:25:00;101469.03;;;25.24;25.86
31299;BME280;17927;52.350;13.402;2023-05-12T09:27:28;101458.59;;;25.26;26.06
31299;BME280;17927;52.350;13.402;2023-05-12T09:29:54;101470.28;;;25.28;26.09
31299;BME280;17927;52.350;13.402;2023-05-12T09:32:33;101466.00;;;25.32;26.12
31299;BME280;17927;52.350;13.402;2023-05-12T09:35:04;101466.00;;;25.32;26.21
31299;BME280;17927;52.350;13.402;2023-05-12T09:37:30;101463.00;;;25.34;26.16
31299;BME280;17927;52.350;13.402;2023-05-12T09:40:00;101468.72;;;25.39;26.08
31299;BME280;17927;52.350;13.402;2023-05-12T09:42:28;101460.84;;;25.43;25.87
31299;BME280;17927;52.350;13.402;2023-05-12T09:45:06;101451.88;;;25.47;25.96
31299;BME280;17927;52.350;13.402;2023-05-12T09:47:36;101452.28;;;25.51;26.09
31299;BME280;17927;52.350;13.402;2023-05-12T09:50:03;101457.13;;;25.56;26.36
31299;BME280;17927;52.350;13.402;2023-05-12T09:52:30;101458.13;;;25.61;26.38
31299;BME280;17927;52.350;13.402;2023-05-12T09:55:09;101466.69;;;25.60;26.02
31299;BME280;17927;52.350;13.402;2023-05-12T09:57:38;101456.50;;;25.53;26.02
31299;BME280;17927;52.350;13.402;2023-05-12T10:00:06;101466.75;;;25.53;25.58
31299;BME280;17927;52.350;13.402;2023-05-12T10:02:33;101460.34;;;25.52;25.82
31299;BME280;17927;52.350;13.402;2023-05-12T10:05:01;101449.66;;;25.56;26.30
31299;BME280;17927;52.350;13.402;2023-05-12T10:07:27;101453.06;;;25.58;26.66
31299;BME280;17927;52.350;13.402;2023-05-12T10:09:54;101459.16;;;25.67;26.61
31299;BME280;17927;52.350;13.402;2023-05-12T10:12:23;101462.91;;;25.73;26.70
31299;BME280;17927;52.350;13.402;2023-05-12T10:14:48;101453.72;;;25.79;26.79
31299;BME280;17927;52.350;13.402;2023-05-12T10:17:14;101455.78;;;25.83;26.77
31299;BME280;17927;52.350;13.402;2023-05-12T10:19:40;101456.41;;;25.86;26.43
31299;BME280;17927;52.350;13.402;2023-05-12T10:22:10;101443.41;;;25.86;26.44
31299;BME280;17927;52.350;13.402;2023-05-12T10:24:36;101455.97;;;25.89;26.44
31299;BME280;17927;52.350;13.402;2023-05-12T10:27:03;101450.81;;;25.92;26.21
31299;BME280;17927;52.350;13.402;2023-05-12T10:29:30;101440.56;;;25.93;26.20
31299;BME280;17927;52.350;13.402;2023-05-12T10:31:57;101450.34;;;25.95;26.20
31299;BME280;17927;52.350;13.402;2023-05-12T10:34:34;101443.50;;;25.98;26.58
31299;BME280;17927;52.350;13.402;2023-05-12T10:37:03;101445.19;;;25.99;26.92
31299;BME280;17927;52.350;13.402;2023-05-12T10:39:32;101439.91;;;25.97;26.69
31299;BME280;17927;52.350;13.402;2023-05-12T10:42:04;101440.75;;;25.98;26.07
31299;BME280;17927;52.350;13.402;2023-05-12T10:44:30;101440.53;;;25.99;26.55
31299;BME280;17927;52.350;13.402;2023-05-12T10:46:56;101437.44;;;26.08;27.18
31299;BME280;17927;52.350;13.402;2023-05-12T10:49:31;101434.16;;;26.18;27.55
31299;BME280;17927;52.350;13.402;2023-05-12T10:51:59;101437.94;;;26.23;27.13
31299;BME280;17927;52.350;13.402;2023-05-12T10:54:25;101438.72;;;26.31;26.91
31299;BME280;17927;52.350;13.402;2023-05-12T10:56:51;101432.22;;;26.37;26.75
31299;BME280;17927;52.350;13.402;2023-05-12T10:59:23;101448.53;;;26.45;26.69
31299;BME280;17927;52.350;13.402;2023-05-12T11:04:21;101440.16;;;26.52;25.92
31299;BME280;17927;52.350;13.402;2023-05-12T11:06:57;101431.75;;;26.58;25.79
31299;BME280;17927;52.350;13.402;2023-05-12T11:09:23;101436.31;;;26.65;25.74
31299;BME280;17927;52.350;13.402;2023-05-12T11:11:49;101432.38;;;26.72;26.01
31299;BME280;17927;52.350;13.402;2023-05-12T11:14:15;101429.53;;;26.79;25.65
31299;BME280;17927;52.350;13.402;2023-05-12T11:16:42;101428.84;;;26.84;25.14
31299;BME280;17927;52.350;13.402;2023-05-12T11:19:07;101435.13;;;26.91;25.36
31299;BME280;17927;52.350;13.402;2023-05-12T11:21:32;101429.13;;;26.94;25.25
31299;BME280;17927;52.350;13.402;2023-05-12T11:23:59;101429.88;;;27.01;25.13
31299;BME280;17927;52.350;13.402;2023-05-12T11:26:25;101418.69;;;27.08;24.83
31299;BME280;17927;52.350;13.402;2023-05-12T11:28:51;101418.31;;;27.16;24.68
31299;BME280;17927;52.350;13.402;2023-05-12T11:31:18;101425.44;;;27.24;24.60
31299;BME280;17927;52.350;13.402;2023-05-12T11:33:44;101414.97;;;27.26;24.40
31299;BME280;17927;52.350;13.402;2023-05-12T11:36:09;101424.84;;;27.34;24.40
31299;BME280;17927;52.350;13.402;2023-05-12T11:38:35;101424.75;;;27.41;24.46
31299;BME280;17927;52.350;13.402;2023-05-12T11:41:00;101422.13;;;27.46;24.22
31299;BME280;17927;52.350;13.402;2023-05-12T11:43:27;101435.88;;;27.53;24.08
31299;BME280;17927;52.350;13.402;2023-05-12T11:45:52;101423.59;;;27.60;24.22
31299;BME280;17927;52.350;13.402;2023-05-12T11:48:19;101429.63;;;27.69;23.80
31299;BME280;17927;52.350;13.402;2023-05-12T11:50:45;101431.66;;;27.74;23.81
31299;BME280;17927;52.350;13.402;2023-05-12T11:53:14;101430.19;;;27.83;23.60
31299;BME280;17927;52.350;13.402;2023-05-12T11:55:47;101438.38;;;27.90;22.97
31299;BME280;17927;52.350;13.402;2023-05-12T11:58:18;101431.63;;;27.98;23.18
31299;BME280;17927;52.350;13.402;2023-05-12T12:00:44;101440.41;;;28.06;23.48
31299;BME280;17927;52.350;13.402;2023-05-12T12:03:12;101433.19;;;28.17;23.40
31299;BME280;17927;52.350;13.402;2023-05-12T12:05:39;101431.63;;;28.21;23.29
31299;BME280;17927;52.350;13.402;2023-05-12T12:10:31;101423.00;;;28.35;23.87
31299;BME280;17927;52.350;13.402;2023-05-12T12:12:58;101447.38;;;28.45;23.84
31299;BME280;17927;52.350;13.402;2023-05-12T12:15:24;101437.53;;;28.54;23.73
31299;BME280;17927;52.350;13.402;2023-05-12T12:17:49;101436.91;;;28.64;23.25
31299;BME280;17927;52.350;13.402;2023-05-12T12:20:14;101436.41;;;28.79;23.29
31299;BME280;17927;52.350;13.402;2023-05-12T12:22:41;101434.47;;;28.96;23.38
31299;BME280;17927;52.350;13.402;2023-05-12T12:25:07;101439.81;;;29.15;22.87
31299;BME280;17927;52.350;13.402;2023-05-12T12:27:32;101434.00;;;29.33;22.76
31299;BME280;17927;52.350;13.402;2023-05-12T12:29:57;101430.72;;;29.54;22.61
31299;BME280;17927;52.350;13.402;2023-05-12T12:32:23;101440.16;;;29.70;22.64
31299;BME280;17927;52.350;13.402;2023-05-12T12:34:48;101444.69;;;29.76;21.70
31299;BME280;17927;52.350;13.402;2023-05-12T12:37:13;101437.00;;;29.83;21.84
31299;BME280;17927;52.350;13.402;2023-05-12T12:39:38;101439.25;;;30.03;22.09